Time;durP1;ratioP1;P1;durP2;ratioP2;P2;SDS_P1;SDS_P2;PMS_P1;PMS_P2;Temp;Humidity;BMP_temperature;BMP_pressure;BME280_temperature;BME280_humidity;BME280_pressure;Samples;Min_cycle;Max_cycle;Signal;HPM_P1;HPM_P2
2021/10/19 09:28:53;;;;;;;7.60;4.53;;;;;;;9.66;98.44;99640.56;5107259;28;20570;-79
2021/10/19 09:31:21;;;;;;;6.07;4.03;;;;;;;10.20;99.42;99642.41;5086746;28;37806;-78
2021/10/19 09:33:57;;;;;;;7.23;4.03;;;;;;;10.65;96.83;99636.63;5085931;28;41744;-77
2021/10/19 09:36:32;;;;;;;6.17;4.27;;;;;;;11.07;93.61;99640.69;5068008;28;42445;-78
2021/10/19 09:39:00;;;;;;;7.10;4.10;;;;;;;11.34;90.71;99633.09;5096667;28;42055;-77
2021/10/19 09:41:27;;;;;;;5.53;3.80;;;;;;;11.57;89.01;99634.50;5100224;28;39873;-74
2021/10/19 09:43:57;;;;;;;6.90;4.07;;;;;;;11.68;87.74;99632.97;5086019;28;40248;-76
2021/10/19 09:46:25;;;;;;;4.23;3.37;;;;;;;11.81;86.97;99628.75;5067415;28;42669;-76
2021/10/19 09:48:54;;;;;;;6.53;4.10;;;;;;;11.90;85.76;99637.13;5075738;28;42142;-77
2021/10/19 09:51:22;;;;;;;5.93;4.20;;;;;;;11.93;85.70;99631.66;5139418;27;40176;-77
2021/10/19 09:53:49;;;;;;;5.10;3.47;;;;;;;12.03;85.05;99632.84;5105119;28;41656;-78
2021/10/19 09:56:17;;;;;;;6.03;4.43;;;;;;;12.12;84.60;99637.63;5083328;28;42799;-77
2021/10/19 09:58:46;;;;;;;6.27;3.90;;;;;;;12.19;84.49;99639.00;5070283;28;42388;-82
2021/10/19 10:01:15;;;;;;;5.33;3.40;;;;;;;12.19;84.05;99629.25;5106433;28;39703;-80
2021/10/19 10:03:46;;;;;;;5.50;3.67;;;;;;;12.21;83.92;99626.50;5105264;28;40850;-78
2021/10/19 10:06:15;;;;;;;6.03;3.70;;;;;;;12.33;83.61;99641.75;5084192;28;42733;-77
2021/10/19 10:08:43;;;;;;;4.53;3.53;;;;;;;12.22;83.69;99622.91;5080328;28;41293;-79
2021/10/19 10:11:11;;;;;;;4.83;3.70;;;;;;;12.28;83.67;99640.28;5101270;28;39140;-78
2021/10/19 10:13:38;;;;;;;5.43;3.20;;;;;;;12.30;83.41;99636.59;5068113;28;40428;-77
2021/10/19 10:16:10;;;;;;;5.43;3.43;;;;;;;12.32;83.29;99626.75;5067361;28;42210;-79
2021/10/19 10:18:39;;;;;;;5.23;3.30;;;;;;;12.42;83.21;99629.72;5076849;28;41342;-76
2021/10/19 10:21:13;;;;;;;5.40;3.57;;;;;;;12.46;83.11;99621.50;5104853;28;39843;-76
2021/10/19 10:23:42;;;;;;;5.37;3.73;;;;;;;12.50;82.91;99616.84;5139644;27;41513;-76
2021/10/19 10:26:22;;;;;;;4.80;3.67;;;;;;;12.55;82.79;99610.34;5135019;27;43819;-79
2021/10/19 10:28:49;;;;;;;6.43;3.03;;;;;;;12.63;82.85;99612.53;5064485;28;42861;-78
2021/10/19 10:31:21;;;;;;;5.07;3.23;;;;;;;12.73;82.42;99613.72;5117203;27;39660;-77
2021/10/19 10:34:02;;;;;;;4.33;3.13;;;;;;;12.81;82.49;99615.91;5102372;28;41697;-79
2021/10/19 10:36:37;;;;;;;3.87;3.23;;;;;;;12.77;82.17;99593.09;5084771;28;43334;-79
2021/10/19 10:39:06;;;;;;;4.10;2.97;;;;;;;12.95;82.19;99605.31;5098639;28;44058;-79
2021/10/19 10:41:38;;;;;;;3.47;2.93;;;;;;;12.90;81.99;99588.78;5074833;28;39857;-78
2021/10/19 10:44:06;;;;;;;2.83;2.40;;;;;;;12.98;81.86;99581.22;5073309;28;40561;-78
2021/10/19 10:46:34;;;;;;;4.50;2.97;;;;;;;13.14;81.81;99594.41;5072393;28;42962;-78
2021/10/19 10:49:03;;;;;;;2.87;2.57;;;;;;;13.17;81.78;99594.25;5071398;28;41410;-79
2021/10/19 10:51:32;;;;;;;3.57;2.63;;;;;;;13.15;81.83;99599.66;5053097;28;38814;-79
2021/10/19 10:54:01;;;;;;;4.13;2.97;;;;;;;13.09;81.74;99589.38;5054560;28;40636;-77
2021/10/19 10:56:28;;;;;;;3.17;2.50;;;;;;;13.09;82.13;99583.22;5052880;28;42788;-78
2021/10/19 10:58:56;;;;;;;3.47;2.60;;;;;;;12.80;82.10;99543.28;5075353;28;41996;-83
2021/10/19 11:01:27;;;;;;;2.10;1.90;;;;;;;13.10;82.39;99585.78;5070324;28;39705;-78
2021/10/19 11:04:05;;;;;;;2.93;2.40;;;;;;;13.11;82.41;99576.81;5104113;28;41865;-82
2021/10/19 11:06:34;;;;;;;2.30;2.07;;;;;;;13.14;82.50;99571.34;5070159;28;42383;-78
2021/10/19 11:09:06;;;;;;;2.93;2.43;;;;;;;13.19;82.40;99574.59;5105698;28;41867;-77
2021/10/19 11:11:37;;;;;;;2.40;2.20;;;;;;;13.22;82.32;99573.56;5070409;28;38640;-78
2021/10/19 11:14:07;;;;;;;2.50;2.30;;;;;;;13.24;82.12;99572.50;5070291;28;42052;-78
2021/10/19 11:16:39;;;;;;;2.60;2.07;;;;;;;13.25;82.30;99563.56;5070254;28;42935;-77
2021/10/19 11:19:15;;;;;;;4.83;2.40;;;;;;;13.29;81.94;99575.72;5087912;28;41109;-81
2021/10/19 11:21:43;;;;;;;3.13;2.23;;;;;;;13.32;82.09;99572.03;5070528;28;38955;-79
2021/10/19 11:24:11;;;;;;;2.73;2.30;;;;;;;13.37;82.12;99564.59;5088087;28;42461;-79
2021/10/19 11:26:38;;;;;;;2.73;1.67;;;;;;;13.40;81.83;99569.72;5082709;28;42555;-77
2021/10/19 11:29:06;;;;;;;3.67;2.57;;;;;;;13.43;82.03;99566.03;5070156;28;42908;-80
2021/10/19 11:31:35;;;;;;;2.90;2.00;;;;;;;13.48;81.67;99550.63;5070148;28;39986;-76
2021/10/19 11:34:03;;;;;;;3.00;2.17;;;;;;;13.54;82.21;99558.22;5064829;28;40888;-80
2021/10/19 11:36:32;;;;;;;3.60;2.17;;;;;;;13.62;81.88;99561.25;5091382;28;43165;-77
2021/10/19 11:39:01;;;;;;;2.27;1.67;;;;;;;13.67;81.60;99551.16;5073692;28;41317;-77
2021/10/19 11:41:31;;;;;;;3.90;2.53;;;;;;;13.70;81.55;99553.66;5085082;28;38962;-78
2021/10/19 11:44:00;;;;;;;3.20;2.63;;;;;;;13.74;81.48;99549.81;5090156;28;40549;-78
2021/10/19 11:46:30;;;;;;;2.63;1.80;;;;;;;13.77;81.46;99541.63;5123569;27;42691;-77
2021/10/19 11:49:02;;;;;;;3.43;1.80;;;;;;;13.86;81.68;99542.84;5060466;28;41280;-79
2021/10/19 11:51:30;;;;;;;1.80;1.67;;;;;;;13.94;81.02;99536.09;5050986;28;39992;-78
2021/10/19 11:54:02;;;;;;;5.20;1.80;;;;;;;14.12;80.96;99534.00;5071776;28;41794;-78
2021/10/19 11:56:30;;;;;;;2.87;2.00;;;;;;;14.18;80.40;99524.75;5068204;28;43673;-77
2021/10/19 11:59:01;;;;;;;1.77;1.67;;;;;;;14.26;80.25;99509.09;5069120;28;41503;-76
2021/10/19 12:01:37;;;;;;;2.40;2.13;;;;;;;14.55;79.54;99521.34;5068039;28;39888;-79
2021/10/19 12:04:07;;;;;;;3.30;2.20;;;;;;;14.72;79.20;99512.19;5068753;28;41004;-79
2021/10/19 12:06:35;;;;;;;3.47;1.87;;;;;;;14.89;78.85;99513.69;5069906;28;42708;-81
2021/10/19 12:09:13;;;;;;;1.93;1.63;;;;;;;14.98;78.69;99513.91;5052382;28;40769;-77
2021/10/19 12:11:47;;;;;;;2.60;2.40;;;;;;;15.18;78.19;99509.84;5068618;28;39211;-77
2021/10/19 12:14:15;;;;;;;2.03;1.83;;;;;;;15.23;78.23;99481.00;5077993;28;40949;-79
2021/10/19 12:16:43;;;;;;;2.57;2.37;;;;;;;15.49;77.80;99497.81;5082171;28;43830;-80
2021/10/19 12:19:13;;;;;;;2.77;2.00;;;;;;;15.64;77.44;99498.53;5089183;28;41291;-79
2021/10/19 12:21:50;;;;;;;1.67;1.57;;;;;;;15.77;77.22;99496.69;5057545;28;39968;-76
2021/10/19 12:24:19;;;;;;;1.87;1.70;;;;;;;15.87;76.75;99487.03;5051745;28;42389;-78
2021/10/19 12:26:47;;;;;;;2.63;2.13;;;;;;;16.00;76.25;99482.47;5068746;28;41702;-78
2021/10/19 12:29:15;;;;;;;2.37;2.17;;;;;;;16.06;76.07;99479.34;5069111;28;42049;-78
2021/10/19 12:31:47;;;;;;;2.67;2.23;;;;;;;16.15;76.09;99475.13;5051846;28;39082;-78
2021/10/19 12:34:15;;;;;;;3.23;2.13;;;;;;;16.20;75.66;99466.75;5064866;28;41630;-80
2021/10/19 12:36:43;;;;;;;2.57;2.17;;;;;;;16.24;75.62;99462.88;5062419;28;42750;-78
2021/10/19 12:39:15;;;;;;;1.60;1.50;;;;;;;16.47;75.21;99457.47;5068620;28;42171;-77
2021/10/19 12:41:45;;;;;;;2.23;1.70;;;;;;;16.63;75.06;99443.81;5068639;28;40097;-77
2021/10/19 12:44:16;;;;;;;3.53;2.50;;;;;;;16.84;74.67;99458.16;5078115;28;40765;-78
2021/10/19 12:46:44;;;;;;;2.33;2.13;;;;;;;16.92;74.59;99443.34;5097481;28;42704;-79
2021/10/19 12:49:12;;;;;;;3.03;2.40;;;;;;;17.06;74.29;99451.13;5068273;28;42211;-78
2021/10/19 12:51:40;;;;;;;4.40;2.60;;;;;;;17.08;73.76;99438.47;5051270;28;40167;-83
2021/10/19 12:54:09;;;;;;;1.83;1.40;;;;;;;17.11;73.97;99436.41;5071952;28;42245;-78
2021/10/19 12:56:38;;;;;;;2.50;2.00;;;;;;;17.22;73.28;99451.59;5081270;28;41608;-78
2021/10/19 12:59:07;;;;;;;6.90;5.03;;;;;;;17.24;73.72;99455.84;5088334;28;41403;-78
2021/10/19 13:01:35;;;;;;;4.23;3.50;;;;;;;17.21;73.79;99450.75;5107608;27;40088;-78
2021/10/19 13:04:03;;;;;;;4.33;2.50;;;;;;;17.20;73.73;99448.19;5084416;28;41110;-78
2021/10/19 13:06:31;;;;;;;2.93;2.60;;;;;;;17.19;73.71;99447.31;5104880;28;43450;-78
2021/10/19 13:09:00;;;;;;;2.13;1.90;;;;;;;17.18;73.93;99439.44;5097201;28;41155;-77
2021/10/19 13:11:28;;;;;;;2.30;1.87;;;;;;;17.27;73.86;99436.03;5050169;28;39157;-78
2021/10/19 13:13:55;;;;;;;2.93;1.80;;;;;;;17.29;73.75;99428.72;5074088;28;41296;-76
2021/10/19 13:16:25;;;;;;;2.30;2.10;;;;;;;17.36;73.94;99435.28;5104281;28;42218;-81
2021/10/19 13:18:54;;;;;;;3.07;2.00;;;;;;;17.29;73.81;99420.69;5087831;28;42763;-79
2021/10/19 13:21:22;;;;;;;2.40;1.67;;;;;;;17.19;73.93;99419.72;5076116;28;40475;-78
2021/10/19 13:23:50;;;;;;;4.83;2.07;;;;;;;17.23;73.83;99434.56;5067541;28;40808;-77
2021/10/19 13:26:19;;;;;;;2.30;1.83;;;;;;;17.17;74.33;99432.38;5068551;28;42741;-79
2021/10/19 13:28:48;;;;;;;3.00;2.60;;;;;;;17.15;74.02;99437.00;5084464;28;41932;-79
2021/10/19 13:31:15;;;;;;;2.60;2.10;;;;;;;17.17;74.16;99437.75;5069183;28;40587;-80
2021/10/19 13:33:46;;;;;;;1.73;1.63;;;;;;;17.10;73.89;99418.63;5067565;28;41810;-77
2021/10/19 13:36:14;;;;;;;2.33;2.00;;;;;;;17.17;74.00;99432.38;5049880;28;41471;-80
2021/10/19 13:38:41;;;;;;;2.83;2.47;;;;;;;17.10;74.27;99417.78;5069008;28;42449;-82
2021/10/19 13:41:09;;;;;;;2.37;2.17;;;;;;;17.04;73.98;99412.94;5070794;28;40217;-80
2021/10/19 13:43:37;;;;;;;2.43;2.23;;;;;;;16.83;74.13;99381.56;5089399;28;41546;-84
2021/10/19 13:46:05;;;;;;;2.17;1.93;;;;;;;16.81;74.24;99383.50;5084268;28;42878;-85
2021/10/19 13:48:35;;;;;;;2.57;2.30;;;;;;;16.91;74.41;99420.25;5069733;28;42209;-79
2021/10/19 13:51:04;;;;;;;3.23;2.87;;;;;;;16.83;74.73;99418.16;5066475;28;40996;-80
2021/10/19 13:53:32;;;;;;;2.00;1.77;;;;;;;16.72;75.10;99408.31;5067459;28;41001;-84
2021/10/19 13:55:59;;;;;;;3.77;2.63;;;;;;;16.72;75.00;99413.66;5067994;28;42858;-84
2021/10/19 13:58:27;;;;;;;2.67;1.97;;;;;;;16.70;74.96;99412.91;5069734;28;42754;-84
2021/10/19 14:00:55;;;;;;;2.63;2.10;;;;;;;16.66;75.02;99403.47;5068914;28;39023;-79
2021/10/19 14:03:23;;;;;;;2.53;1.90;;;;;;;16.65;75.22;99404.44;5069413;28;42457;-80
2021/10/19 14:05:50;;;;;;;3.57;2.50;;;;;;;16.64;74.94;99408.06;5067341;28;42987;-78
2021/10/19 14:08:19;;;;;;;2.97;1.70;;;;;;;16.67;74.94;99397.13;5067296;28;42279;-78
2021/10/19 14:10:47;;;;;;;2.70;1.90;;;;;;;16.68;75.13;99388.16;5073101;28;40247;-80
2021/10/19 14:13:15;;;;;;;2.83;2.20;;;;;;;16.73;74.78;99391.28;5087996;28;41809;-81
2021/10/19 14:15:43;;;;;;;2.47;2.07;;;;;;;16.78;74.67;99397.13;5109270;28;43308;-78
2021/10/19 14:18:11;;;;;;;2.57;2.37;;;;;;;16.83;74.60;99386.06;5090982;28;42649;-82
2021/10/19 14:20:38;;;;;;;2.40;2.00;;;;;;;16.87;74.51;99383.03;5056834;28;39019;-77
2021/10/19 14:23:06;;;;;;;2.13;1.83;;;;;;;16.94;74.47;99382.53;5069530;28;43265;-79
2021/10/19 14:25:36;;;;;;;2.97;2.60;;;;;;;16.99;74.16;99380.34;5088530;28;43484;-78
2021/10/19 14:28:03;;;;;;;3.87;2.63;;;;;;;17.06;74.26;99377.03;5070841;28;42024;-78
2021/10/19 14:30:32;;;;;;;2.30;2.03;;;;;;;17.15;73.95;99373.63;5062573;28;38815;-77
2021/10/19 14:33:00;;;;;;;2.20;1.80;;;;;;;17.29;73.77;99377.84;5090223;28;40987;-78
2021/10/19 14:35:27;;;;;;;3.47;2.40;;;;;;;17.42;73.40;99375.03;5093053;28;42661;-82
2021/10/19 14:37:55;;;;;;;2.00;1.80;;;;;;;17.64;72.75;99374.13;5073817;28;43221;-78
2021/10/19 14:40:23;;;;;;;2.67;2.17;;;;;;;17.72;72.18;99359.09;5089958;28;38930;-80
2021/10/19 14:42:52;;;;;;;2.00;1.90;;;;;;;17.75;72.18;99360.69;5056804;28;40724;-80
2021/10/19 14:45:19;;;;;;;2.67;1.93;;;;;;;17.72;71.92;99368.97;5073567;28;42740;-78
2021/10/19 14:47:48;;;;;;;2.37;2.17;;;;;;;17.53;72.33;99357.09;5073400;28;41944;-80
2021/10/19 14:50:16;;;;;;;2.43;2.23;;;;;;;17.54;72.57;99371.34;5090614;28;40058;-80
2021/10/19 14:52:45;;;;;;;10.23;5.60;;;;;;;17.50;72.68;99377.91;5107313;28;40814;-80
2021/10/19 14:55:13;;;;;;;7.93;4.67;;;;;;;17.49;72.57;99377.06;5073229;28;42788;-80
2021/10/19 14:57:42;;;;;;;6.57;3.60;;;;;;;17.54;72.28;99376.69;5071363;28;42496;-80
2021/10/19 15:00:13;;;;;;;2.77;2.50;;;;;;;17.60;72.42;99377.03;5054204;28;38627;-80
2021/10/19 15:02:42;;;;;;;4.30;2.50;;;;;;;17.63;71.94;99375.06;5071143;28;41639;-80
2021/10/19 15:05:10;;;;;;;2.53;2.20;;;;;;;17.62;71.90;99378.72;5054349;28;41637;-80
2021/10/19 15:07:38;;;;;;;2.70;2.47;;;;;;;17.56;71.76;99378.25;5054373;28;41215;-80
2021/10/19 15:10:07;;;;;;;2.43;1.87;;;;;;;17.62;72.03;99378.72;5071207;28;39882;-80
2021/10/19 15:12:35;;;;;;;1.63;1.53;;;;;;;17.64;71.99;99379.47;5071809;28;42597;-81
2021/10/19 15:15:03;;;;;;;2.30;1.87;;;;;;;17.69;71.68;99379.94;5071075;28;42623;-80
2021/10/19 15:17:32;;;;;;;2.03;1.83;;;;;;;17.80;71.42;99366.50;5053646;28;41086;-81
2021/10/19 15:20:00;;;;;;;3.40;2.03;;;;;;;17.76;71.17;99349.84;5070688;28;40121;-81
2021/10/19 15:22:28;;;;;;;2.10;1.47;;;;;;;17.82;71.43;99362.69;5070989;28;41659;-80
2021/10/19 15:24:57;;;;;;;2.60;2.37;;;;;;;17.66;70.85;99353.41;5070287;28;43603;-81
2021/10/19 15:27:26;;;;;;;2.67;2.20;;;;;;;17.59;71.23;99356.56;5071901;28;43169;-80
2021/10/19 15:29:54;;;;;;;2.67;1.73;;;;;;;17.38;71.29;99347.66;5053636;28;39384;-80
2021/10/19 15:32:22;;;;;;;2.10;1.90;;;;;;;17.29;71.34;99360.94;5067438;28;42412;-80
2021/10/19 15:34:51;;;;;;;1.80;1.70;;;;;;;17.14;71.92;99360.38;5091089;28;41952;-81
2021/10/19 15:37:19;;;;;;;1.83;1.70;;;;;;;16.89;72.13;99342.78;5090814;28;42520;-81
2021/10/19 15:39:47;;;;;;;1.70;1.47;;;;;;;16.85;72.57;99358.22;5105290;28;40117;-81
2021/10/19 15:42:15;;;;;;;1.77;1.63;;;;;;;16.75;72.83;99359.94;5070602;28;41749;-80
2021/10/19 15:44:42;;;;;;;2.23;1.70;;;;;;;16.66;73.04;99368.69;5070905;28;44039;-80
2021/10/19 15:47:13;;;;;;;2.47;2.10;;;;;;;16.56;73.09;99357.00;5070600;28;41361;-80
2021/10/19 15:49:42;;;;;;;2.07;1.87;;;;;;;16.39;73.49;99338.75;5087023;28;40637;-81
2021/10/19 15:52:11;;;;;;;3.00;2.30;;;;;;;16.20;73.60;99314.41;5089285;28;43362;-80
2021/10/19 15:54:39;;;;;;;2.30;1.90;;;;;;;16.38;73.76;99358.44;5074715;28;41828;-81
2021/10/19 15:57:07;;;;;;;3.17;2.47;;;;;;;16.33;73.99;99349.91;5106967;28;41966;-78
2021/10/19 15:59:34;;;;;;;2.00;1.90;;;;;;;16.27;74.38;99345.91;5124311;27;40078;-77
2021/10/19 16:02:03;;;;;;;2.63;1.70;;;;;;;16.23;74.43;99343.56;5107677;28;41664;-77
2021/10/19 16:04:31;;;;;;;2.57;2.23;;;;;;;16.15;74.46;99353.06;5073156;28;43691;-77
2021/10/19 16:06:59;;;;;;;3.47;2.20;;;;;;;16.08;74.82;99341.13;5058517;28;41244;-77
2021/10/19 16:09:30;;;;;;;2.77;1.93;;;;;;;16.01;74.65;99339.06;5091585;28;39891;-77
2021/10/19 16:12:00;;;;;;;1.43;1.33;;;;;;;15.94;74.98;99338.69;5073124;28;40951;-79
2021/10/19 16:14:28;;;;;;;2.73;2.00;;;;;;;15.84;75.16;99335.00;5066313;28;43056;-77
2021/10/19 16:16:55;;;;;;;2.03;1.83;;;;;;;15.76;75.01;99324.06;5067962;28;43137;-78
2021/10/19 16:19:24;;;;;;;2.50;1.97;;;;;;;15.77;75.22;99331.97;5052191;28;39278;-77
2021/10/19 16:21:51;;;;;;;3.00;2.50;;;;;;;15.74;75.64;99326.00;5068745;28;41482;-78
2021/10/19 16:24:19;;;;;;;3.03;2.30;;;;;;;15.69;75.78;99322.84;5068784;28;42581;-78
2021/10/19 16:26:48;;;;;;;2.43;1.73;;;;;;;15.68;75.48;99331.81;5067957;28;43217;-78
2021/10/19 16:29:16;;;;;;;3.30;2.43;;;;;;;15.59;75.69;99311.13;5067589;28;43488;-77
2021/10/19 16:31:44;;;;;;;2.87;2.23;;;;;;;15.66;75.85;99323.06;5051311;28;40661;-77
2021/10/19 16:34:11;;;;;;;3.17;2.17;;;;;;;15.63;75.55;99334.81;5068652;28;42833;-77
2021/10/19 16:36:41;;;;;;;3.87;2.33;;;;;;;15.57;75.53;99335.28;5051291;28;42139;-77
2021/10/19 16:39:10;;;;;;;2.10;1.90;;;;;;;15.49;75.82;99326.09;5051740;28;39420;-79
2021/10/19 16:41:38;;;;;;;2.90;2.40;;;;;;;15.42;76.05;99331.91;5067729;28;41836;-76
2021/10/19 16:44:07;;;;;;;2.00;1.77;;;;;;;15.26;76.03;99310.00;5067939;28;43733;-77
2021/10/19 16:46:35;;;;;;;2.00;1.80;;;;;;;15.30;76.37;99327.50;5068094;28;41235;-77
2021/10/19 16:49:05;;;;;;;3.97;2.60;;;;;;;15.23;76.54;99331.56;5051788;28;39931;-76
2021/10/19 16:51:33;;;;;;;2.53;2.10;;;;;;;15.17;76.36;99337.38;5066363;28;41167;-78
2021/10/19 16:54:00;;;;;;;1.83;1.63;;;;;;;15.14;76.72;99345.59;5066735;28;43724;-77
2021/10/19 16:56:27;;;;;;;1.67;1.57;;;;;;;15.08;76.89;99343.41;5067369;28;43140;-77
2021/10/19 16:58:55;;;;;;;3.67;2.40;;;;;;;15.02;76.55;99344.69;5055971;28;40436;-77
2021/10/19 17:01:24;;;;;;;3.40;2.17;;;;;;;14.96;76.83;99352.28;5071786;28;42438;-78
2021/10/19 17:03:52;;;;;;;2.73;2.00;;;;;;;14.91;77.09;99347.28;5056153;28;41947;-78
2021/10/19 17:06:20;;;;;;;2.93;2.10;;;;;;;14.87;76.87;99347.59;5072381;28;42518;-76
2021/10/19 17:08:48;;;;;;;2.70;2.27;;;;;;;14.84;76.95;99353.16;5074530;28;40537;-77
2021/10/19 17:11:16;;;;;;;2.00;1.83;;;;;;;14.73;77.36;99344.09;5088077;28;40679;-78
2021/10/19 17:13:44;;;;;;;2.67;1.87;;;;;;;14.77;77.47;99354.56;5071354;28;43685;-77
2021/10/19 17:16:12;;;;;;;4.40;2.97;;;;;;;14.72;77.30;99353.06;5050353;28;42559;-77
2021/10/19 17:18:41;;;;;;;2.07;1.87;;;;;;;14.68;77.21;99356.09;5080179;28;39768;-77
2021/10/19 17:21:10;;;;;;;2.60;1.93;;;;;;;14.52;77.46;99329.66;5069717;28;42685;-78
2021/10/19 17:23:39;;;;;;;2.20;2.00;;;;;;;14.58;77.30;99358.56;5067939;28;42892;-77
2021/10/19 17:26:07;;;;;;;3.17;2.40;;;;;;;14.54;77.71;99349.06;5067625;28;41171;-79
2021/10/19 17:28:34;;;;;;;2.77;2.10;;;;;;;14.50;77.62;99350.22;5051011;28;39097;-77
2021/10/19 17:31:02;;;;;;;2.67;2.27;;;;;;;14.46;77.64;99346.09;5071513;28;42843;-77
2021/10/19 17:33:31;;;;;;;3.27;2.60;;;;;;;14.40;78.31;99351.84;5067441;28;41735;-77
2021/10/19 17:36:00;;;;;;;4.10;2.40;;;;;;;14.38;78.21;99354.56;5069398;28;42906;-77
2021/10/19 17:38:29;;;;;;;3.00;2.17;;;;;;;14.33;77.98;99350.56;5067465;28;40001;-78
2021/10/19 17:40:57;;;;;;;3.10;2.73;;;;;;;14.31;78.13;99357.78;5067227;28;42339;-78
2021/10/19 17:43:25;;;;;;;4.97;3.67;;;;;;;14.27;78.53;99356.28;5077797;28;43300;-77
2021/10/19 17:45:53;;;;;;;3.27;2.90;;;;;;;14.15;78.35;99338.50;5068241;28;42376;-77
2021/10/19 17:48:21;;;;;;;2.60;2.20;;;;;;;14.17;78.47;99352.56;5064329;28;39736;-77
2021/10/19 17:50:49;;;;;;;2.80;2.10;;;;;;;14.14;78.66;99350.97;5053041;28;40690;-77
2021/10/19 17:53:18;;;;;;;3.47;2.47;;;;;;;14.10;78.72;99353.94;5078529;28;42860;-77
2021/10/19 17:55:46;;;;;;;2.73;2.53;;;;;;;13.98;78.57;99345.81;5069594;28;43030;-77
2021/10/19 17:58:14;;;;;;;2.30;1.90;;;;;;;13.98;79.05;99356.47;5053405;28;39151;-78
2021/10/19 18:00:42;;;;;;;3.50;2.07;;;;;;;13.91;79.13;99360.53;5053624;28;41245;-79
2021/10/19 18:03:10;;;;;;;3.20;2.50;;;;;;;13.74;78.96;99334.19;5068545;28;42872;-78
